Enter the Airport ICAO Code

Search by Airport or City

Current Weather

LEAS | Asturias Airport (Oviedo Airport)

Oviedo, Asturias, Spain

Last Update 18 Minutes Ago

Mostly Cloudy Sky

Temperature of 16 ºC

Moderate Winds from NorthWest

Temperature

16 ºC

Dew Point Temperature

15 ºC

Relative Humidity

93.82 %

Wind Direction

NorthWest (300º, Ranging from 260º to 320º)

Wind Velocity

22 km/h (12 kt)

Gusts

None

Visibility

Greater than 10 Kilometers

Sea Level Pressure

1014 hPa (Hectopascals)

Layers of Clouds

5% to 30% of Sky Covered from 183 mts (600 ft) Above Ground Level.

60% to 90% of Sky Covered from 488 mts (1600 ft) Above Ground Level.

METAR LEAS 191300Z 30012KT 260V320 9999 FEW006 BKN016 16/15 Q1014 TEMPO BKN008

Weather Forecast

LEAS | Asturias Airport (Oviedo Airport)

Oviedo, Asturias, Spain

Forecast valid for the next 20 Hours

From now on it is expected:

Mostly Cloudy Sky

Light to Moderate Winds from West

From now on it is expected 3 hours with intermittent periods of:

Thunderstorm

In 14 hours it is expected the begining of 6 hours with intermittent periods of:

Rain

Maximum Temperature

16 ºC in 2 Hours

Minimum Temperature

14 ºC in 16 Hours

TAF LEAS 190800Z 1909/2009 28008KT 8000 SCT010 BKN020 TX16/1915Z TN14/2005Z PROB40 TEMPO 1909/2003 3000 -DZ BR BKN010 PROB30 TEMPO 1909/1916 1500 -SHRA BCFG BKN003 BKN005 SCT025TCU PROB30 TEMPO 1911/1916 TS SCT030CB TEMPO 2003/2009 3000 RA